sensor_id;sensor_type;location;lat;lon;timestamp;P1;durP1;ratioP1;P2;durP2;ratioP2
6280;SDS011;3173;48.204;11.612;2023-05-24T00:01:39;3.87;;;3.00;;
6280;SDS011;3173;48.204;11.612;2023-05-24T00:04:06;3.93;;;2.87;;
6280;SDS011;3173;48.204;11.612;2023-05-24T00:06:32;5.03;;;3.40;;
6280;SDS011;3173;48.204;11.612;2023-05-24T00:08:59;7.33;;;3.27;;
6280;SDS011;3173;48.204;11.612;2023-05-24T00:11:26;5.57;;;3.23;;
6280;SDS011;3173;48.204;11.612;2023-05-24T00:13:52;5.00;;;3.47;;
6280;SDS011;3173;48.204;11.612;2023-05-24T00:16:18;5.03;;;3.57;;
6280;SDS011;3173;48.204;11.612;2023-05-24T00:18:44;8.00;;;2.80;;
6280;SDS011;3173;48.204;11.612;2023-05-24T00:21:11;4.23;;;3.00;;
6280;SDS011;3173;48.204;11.612;2023-05-24T00:23:37;5.40;;;3.47;;
6280;SDS011;3173;48.204;11.612;2023-05-24T00:26:04;3.20;;;2.53;;
6280;SDS011;3173;48.204;11.612;2023-05-24T00:28:30;5.50;;;3.20;;
6280;SDS011;3173;48.204;11.612;2023-05-24T00:30:57;4.00;;;2.93;;
6280;SDS011;3173;48.204;11.612;2023-05-24T00:33:23;4.50;;;3.40;;
6280;SDS011;3173;48.204;11.612;2023-05-24T00:35:49;5.43;;;3.10;;
6280;SDS011;3173;48.204;11.612;2023-05-24T00:38:22;6.00;;;3.67;;
6280;SDS011;3173;48.204;11.612;2023-05-24T00:40:48;12.33;;;3.33;;
6280;SDS011;3173;48.204;11.612;2023-05-24T00:43:15;4.40;;;3.30;;
6280;SDS011;3173;48.204;11.612;2023-05-24T00:45:41;5.90;;;3.70;;
6280;SDS011;3173;48.204;11.612;2023-05-24T00:48:08;3.80;;;2.90;;
6280;SDS011;3173;48.204;11.612;2023-05-24T00:50:34;7.87;;;3.30;;
6280;SDS011;3173;48.204;11.612;2023-05-24T00:53:01;3.97;;;3.47;;
6280;SDS011;3173;48.204;11.612;2023-05-24T00:55:28;5.50;;;3.00;;
6280;SDS011;3173;48.204;11.612;2023-05-24T00:57:58;5.60;;;3.47;;
6280;SDS011;3173;48.204;11.612;2023-05-24T01:00:24;4.43;;;3.20;;
6280;SDS011;3173;48.204;11.612;2023-05-24T01:02:51;4.57;;;3.57;;
6280;SDS011;3173;48.204;11.612;2023-05-24T01:05:18;5.00;;;3.40;;
6280;SDS011;3173;48.204;11.612;2023-05-24T01:10:38;5.30;;;4.00;;
6280;SDS011;3173;48.204;11.612;2023-05-24T01:13:20;6.00;;;4.07;;
6280;SDS011;3173;48.204;11.612;2023-05-24T01:21:05;5.40;;;4.17;;
6280;SDS011;3173;48.204;11.612;2023-05-24T01:26:39;6.20;;;4.50;;
6280;SDS011;3173;48.204;11.612;2023-05-24T01:29:07;5.13;;;4.10;;
6280;SDS011;3173;48.204;11.612;2023-05-24T01:31:34;6.70;;;4.10;;
6280;SDS011;3173;48.204;11.612;2023-05-24T01:34:01;6.83;;;4.50;;
6280;SDS011;3173;48.204;11.612;2023-05-24T01:36:27;6.50;;;3.93;;
6280;SDS011;3173;48.204;11.612;2023-05-24T01:38:54;6.57;;;4.20;;
6280;SDS011;3173;48.204;11.612;2023-05-24T01:43:58;4.70;;;3.90;;
6280;SDS011;3173;48.204;11.612;2023-05-24T01:51:48;6.40;;;4.70;;
6280;SDS011;3173;48.204;11.612;2023-05-24T01:54:14;10.13;;;5.47;;
6280;SDS011;3173;48.204;11.612;2023-05-24T01:56:44;11.93;;;4.90;;
6280;SDS011;3173;48.204;11.612;2023-05-24T01:59:11;6.87;;;5.23;;
6280;SDS011;3173;48.204;11.612;2023-05-24T02:01:37;8.03;;;5.10;;
6280;SDS011;3173;48.204;11.612;2023-05-24T02:04:03;7.67;;;5.43;;
6280;SDS011;3173;48.204;11.612;2023-05-24T02:06:30;6.40;;;5.00;;
6280;SDS011;3173;48.204;11.612;2023-05-24T02:08:56;5.33;;;4.10;;
6280;SDS011;3173;48.204;11.612;2023-05-24T02:11:22;7.00;;;4.57;;
6280;SDS011;3173;48.204;11.612;2023-05-24T02:13:48;6.47;;;4.70;;
6280;SDS011;3173;48.204;11.612;2023-05-24T02:16:14;7.30;;;4.70;;
6280;SDS011;3173;48.204;11.612;2023-05-24T02:18:42;5.73;;;4.20;;
6280;SDS011;3173;48.204;11.612;2023-05-24T02:21:10;7.30;;;4.70;;
6280;SDS011;3173;48.204;11.612;2023-05-24T02:23:37;6.90;;;4.13;;
6280;SDS011;3173;48.204;11.612;2023-05-24T02:26:03;5.23;;;4.20;;
6280;SDS011;3173;48.204;11.612;2023-05-24T02:28:29;7.30;;;4.00;;
6280;SDS011;3173;48.204;11.612;2023-05-24T02:30:56;6.03;;;4.40;;
6280;SDS011;3173;48.204;11.612;2023-05-24T02:33:22;7.67;;;4.97;;
6280;SDS011;3173;48.204;11.612;2023-05-24T02:35:54;7.17;;;5.70;;
6280;SDS011;3173;48.204;11.612;2023-05-24T02:38:20;6.47;;;5.00;;
6280;SDS011;3173;48.204;11.612;2023-05-24T02:40:47;8.60;;;5.00;;
6280;SDS011;3173;48.204;11.612;2023-05-24T02:43:13;8.00;;;5.53;;
6280;SDS011;3173;48.204;11.612;2023-05-24T02:45:39;6.13;;;5.00;;
6280;SDS011;3173;48.204;11.612;2023-05-24T02:48:05;6.50;;;4.70;;
6280;SDS011;3173;48.204;11.612;2023-05-24T02:50:32;7.20;;;5.07;;
6280;SDS011;3173;48.204;11.612;2023-05-24T02:52:58;5.50;;;4.67;;
6280;SDS011;3173;48.204;11.612;2023-05-24T02:55:24;6.50;;;4.70;;
6280;SDS011;3173;48.204;11.612;2023-05-24T02:57:50;7.43;;;4.50;;
6280;SDS011;3173;48.204;11.612;2023-05-24T03:00:18;6.80;;;5.60;;
6280;SDS011;3173;48.204;11.612;2023-05-24T03:02:44;7.30;;;4.97;;
6280;SDS011;3173;48.204;11.612;2023-05-24T03:05:12;6.13;;;4.90;;
6280;SDS011;3173;48.204;11.612;2023-05-24T03:07:38;8.30;;;5.90;;
6280;SDS011;3173;48.204;11.612;2023-05-24T03:10:05;5.97;;;4.77;;
6280;SDS011;3173;48.204;11.612;2023-05-24T03:12:31;7.33;;;5.37;;
6280;SDS011;3173;48.204;11.612;2023-05-24T03:14:57;6.20;;;4.80;;
6280;SDS011;3173;48.204;11.612;2023-05-24T03:17:23;7.27;;;5.40;;
6280;SDS011;3173;48.204;11.612;2023-05-24T03:19:50;10.00;;;5.47;;
6280;SDS011;3173;48.204;11.612;2023-05-24T03:22:17;7.43;;;5.40;;
6280;SDS011;3173;48.204;11.612;2023-05-24T03:24:43;7.27;;;5.10;;
6280;SDS011;3173;48.204;11.612;2023-05-24T03:27:10;7.23;;;5.90;;
6280;SDS011;3173;48.204;11.612;2023-05-24T03:29:36;9.37;;;5.80;;
6280;SDS011;3173;48.204;11.612;2023-05-24T03:32:02;8.30;;;5.60;;
6280;SDS011;3173;48.204;11.612;2023-05-24T03:34:29;8.17;;;5.63;;
6280;SDS011;3173;48.204;11.612;2023-05-24T03:36:55;7.37;;;5.47;;
6280;SDS011;3173;48.204;11.612;2023-05-24T03:39:21;6.20;;;5.13;;
6280;SDS011;3173;48.204;11.612;2023-05-24T03:41:47;6.50;;;5.10;;
6280;SDS011;3173;48.204;11.612;2023-05-24T03:44:14;7.77;;;5.47;;
6280;SDS011;3173;48.204;11.612;2023-05-24T03:46:40;8.90;;;5.90;;
6280;SDS011;3173;48.204;11.612;2023-05-24T03:49:06;8.73;;;5.67;;
6280;SDS011;3173;48.204;11.612;2023-05-24T03:51:32;6.97;;;5.30;;
6280;SDS011;3173;48.204;11.612;2023-05-24T03:53:58;8.20;;;5.17;;
6280;SDS011;3173;48.204;11.612;2023-05-24T03:56:25;8.37;;;5.60;;
6280;SDS011;3173;48.204;11.612;2023-05-24T03:58:51;6.67;;;5.30;;
6280;SDS011;3173;48.204;11.612;2023-05-24T04:01:18;7.37;;;5.50;;
6280;SDS011;3173;48.204;11.612;2023-05-24T04:03:44;10.70;;;6.30;;
6280;SDS011;3173;48.204;11.612;2023-05-24T04:06:11;11.07;;;6.33;;
6280;SDS011;3173;48.204;11.612;2023-05-24T04:08:38;9.07;;;5.23;;
6280;SDS011;3173;48.204;11.612;2023-05-24T04:11:04;8.27;;;5.77;;
6280;SDS011;3173;48.204;11.612;2023-05-24T04:13:30;8.60;;;5.33;;
6280;SDS011;3173;48.204;11.612;2023-05-24T04:15:56;9.47;;;6.10;;
6280;SDS011;3173;48.204;11.612;2023-05-24T04:18:22;9.63;;;6.03;;
6280;SDS011;3173;48.204;11.612;2023-05-24T04:20:48;8.97;;;5.57;;
6280;SDS011;3173;48.204;11.612;2023-05-24T04:23:15;7.83;;;5.80;;
6280;SDS011;3173;48.204;11.612;2023-05-24T04:25:41;7.00;;;4.87;;
6280;SDS011;3173;48.204;11.612;2023-05-24T04:28:07;6.83;;;5.50;;
6280;SDS011;3173;48.204;11.612;2023-05-24T04:30:34;9.03;;;4.70;;
6280;SDS011;3173;48.204;11.612;2023-05-24T04:33:00;8.73;;;5.00;;
6280;SDS011;3173;48.204;11.612;2023-05-24T04:35:27;10.10;;;4.93;;
6280;SDS011;3173;48.204;11.612;2023-05-24T04:37:54;8.53;;;5.30;;
6280;SDS011;3173;48.204;11.612;2023-05-24T04:40:21;7.60;;;4.97;;
6280;SDS011;3173;48.204;11.612;2023-05-24T04:42:47;6.70;;;4.93;;
6280;SDS011;3173;48.204;11.612;2023-05-24T04:45:14;8.80;;;4.73;;
6280;SDS011;3173;48.204;11.612;2023-05-24T04:47:40;7.93;;;4.40;;
6280;SDS011;3173;48.204;11.612;2023-05-24T04:50:07;8.53;;;5.13;;
6280;SDS011;3173;48.204;11.612;2023-05-24T04:52:33;8.40;;;4.73;;
6280;SDS011;3173;48.204;11.612;2023-05-24T04:55:01;5.77;;;3.93;;
6280;SDS011;3173;48.204;11.612;2023-05-24T04:57:27;9.30;;;5.20;;
6280;SDS011;3173;48.204;11.612;2023-05-24T04:59:54;7.40;;;5.37;;
6280;SDS011;3173;48.204;11.612;2023-05-24T05:02:20;7.67;;;4.60;;
6280;SDS011;3173;48.204;11.612;2023-05-24T05:04:46;9.20;;;4.43;;
6280;SDS011;3173;48.204;11.612;2023-05-24T05:07:12;8.80;;;5.23;;
6280;SDS011;3173;48.204;11.612;2023-05-24T05:09:38;7.00;;;4.67;;
6280;SDS011;3173;48.204;11.612;2023-05-24T05:12:05;7.83;;;4.47;;
6280;SDS011;3173;48.204;11.612;2023-05-24T05:14:31;8.50;;;4.83;;
6280;SDS011;3173;48.204;11.612;2023-05-24T05:16:57;6.30;;;4.80;;
6280;SDS011;3173;48.204;11.612;2023-05-24T05:19:23;10.47;;;5.00;;
6280;SDS011;3173;48.204;11.612;2023-05-24T05:21:50;10.93;;;5.40;;
6280;SDS011;3173;48.204;11.612;2023-05-24T05:24:17;8.40;;;5.20;;
6280;SDS011;3173;48.204;11.612;2023-05-24T05:26:43;11.70;;;6.57;;
6280;SDS011;3173;48.204;11.612;2023-05-24T05:29:09;9.00;;;5.77;;
6280;SDS011;3173;48.204;11.612;2023-05-24T05:31:35;8.43;;;6.03;;
6280;SDS011;3173;48.204;11.612;2023-05-24T05:34:03;8.40;;;7.20;;
6280;SDS011;3173;48.204;11.612;2023-05-24T05:36:33;11.27;;;8.20;;
6280;SDS011;3173;48.204;11.612;2023-05-24T05:39:04;13.73;;;7.83;;
6280;SDS011;3173;48.204;11.612;2023-05-24T05:41:34;10.93;;;6.93;;
6280;SDS011;3173;48.204;11.612;2023-05-24T05:44:00;10.90;;;6.97;;
6280;SDS011;3173;48.204;11.612;2023-05-24T05:46:26;9.37;;;7.23;;
6280;SDS011;3173;48.204;11.612;2023-05-24T05:48:52;12.90;;;8.30;;
6280;SDS011;3173;48.204;11.612;2023-05-24T05:51:18;11.10;;;7.83;;
6280;SDS011;3173;48.204;11.612;2023-05-24T05:53:44;10.87;;;8.03;;
6280;SDS011;3173;48.204;11.612;2023-05-24T05:56:10;11.60;;;7.47;;
6280;SDS011;3173;48.204;11.612;2023-05-24T05:58:36;10.57;;;7.27;;
6280;SDS011;3173;48.204;11.612;2023-05-24T06:01:03;13.03;;;8.97;;
6280;SDS011;3173;48.204;11.612;2023-05-24T06:03:29;9.90;;;7.67;;
6280;SDS011;3173;48.204;11.612;2023-05-24T06:05:55;8.93;;;7.03;;
6280;SDS011;3173;48.204;11.612;2023-05-24T06:08:21;8.73;;;6.63;;
6280;SDS011;3173;48.204;11.612;2023-05-24T06:10:47;14.30;;;8.50;;
6280;SDS011;3173;48.204;11.612;2023-05-24T06:13:14;9.97;;;6.70;;
6280;SDS011;3173;48.204;11.612;2023-05-24T06:15:40;9.37;;;6.40;;
6280;SDS011;3173;48.204;11.612;2023-05-24T06:18:06;11.33;;;7.50;;
6280;SDS011;3173;48.204;11.612;2023-05-24T06:20:32;11.03;;;6.93;;
6280;SDS011;3173;48.204;11.612;2023-05-24T06:22:58;6.90;;;5.83;;
6280;SDS011;3173;48.204;11.612;2023-05-24T06:25:24;11.83;;;6.10;;
6280;SDS011;3173;48.204;11.612;2023-05-24T06:27:53;9.50;;;6.20;;
6280;SDS011;3173;48.204;11.612;2023-05-24T06:30:19;6.30;;;5.10;;
6280;SDS011;3173;48.204;11.612;2023-05-24T06:32:45;7.53;;;5.50;;
6280;SDS011;3173;48.204;11.612;2023-05-24T06:35:12;9.00;;;6.10;;
6280;SDS011;3173;48.204;11.612;2023-05-24T06:37:38;6.93;;;5.53;;
6280;SDS011;3173;48.204;11.612;2023-05-24T06:40:05;9.07;;;6.20;;
6280;SDS011;3173;48.204;11.612;2023-05-24T06:42:34;7.07;;;5.43;;
6280;SDS011;3173;48.204;11.612;2023-05-24T06:45:00;8.10;;;5.53;;
6280;SDS011;3173;48.204;11.612;2023-05-24T06:47:27;8.53;;;5.77;;
6280;SDS011;3173;48.204;11.612;2023-05-24T06:49:53;7.47;;;5.07;;
6280;SDS011;3173;48.204;11.612;2023-05-24T06:52:19;7.90;;;5.50;;
6280;SDS011;3173;48.204;11.612;2023-05-24T06:54:45;7.87;;;5.30;;
6280;SDS011;3173;48.204;11.612;2023-05-24T06:57:11;7.17;;;5.50;;
6280;SDS011;3173;48.204;11.612;2023-05-24T06:59:37;8.57;;;5.33;;
6280;SDS011;3173;48.204;11.612;2023-05-24T07:02:03;7.73;;;5.47;;
6280;SDS011;3173;48.204;11.612;2023-05-24T07:04:29;5.90;;;4.60;;
6280;SDS011;3173;48.204;11.612;2023-05-24T07:06:55;9.67;;;4.90;;
6280;SDS011;3173;48.204;11.612;2023-05-24T07:09:21;6.97;;;5.17;;
6280;SDS011;3173;48.204;11.612;2023-05-24T07:11:48;5.30;;;4.00;;
6280;SDS011;3173;48.204;11.612;2023-05-24T07:14:14;7.67;;;5.20;;
6280;SDS011;3173;48.204;11.612;2023-05-24T07:16:40;5.33;;;4.63;;
6280;SDS011;3173;48.204;11.612;2023-05-24T07:19:06;7.27;;;4.70;;
6280;SDS011;3173;48.204;11.612;2023-05-24T07:21:33;7.67;;;4.63;;
6280;SDS011;3173;48.204;11.612;2023-05-24T07:24:01;6.00;;;4.80;;
6280;SDS011;3173;48.204;11.612;2023-05-24T07:26:28;7.43;;;4.80;;
6280;SDS011;3173;48.204;11.612;2023-05-24T07:28:54;5.87;;;4.70;;
6280;SDS011;3173;48.204;11.612;2023-05-24T07:31:20;7.03;;;4.90;;
6280;SDS011;3173;48.204;11.612;2023-05-24T07:33:47;6.93;;;5.13;;
6280;SDS011;3173;48.204;11.612;2023-05-24T07:36:13;9.00;;;5.13;;
6280;SDS011;3173;48.204;11.612;2023-05-24T07:38:40;7.50;;;4.83;;
6280;SDS011;3173;48.204;11.612;2023-05-24T07:41:06;8.40;;;5.53;;
6280;SDS011;3173;48.204;11.612;2023-05-24T07:43:32;9.07;;;5.57;;
6280;SDS011;3173;48.204;11.612;2023-05-24T07:45:58;10.30;;;6.17;;
6280;SDS011;3173;48.204;11.612;2023-05-24T07:48:24;7.40;;;4.93;;
6280;SDS011;3173;48.204;11.612;2023-05-24T07:50:51;8.70;;;5.90;;
6280;SDS011;3173;48.204;11.612;2023-05-24T07:53:17;7.90;;;5.43;;
6280;SDS011;3173;48.204;11.612;2023-05-24T07:55:44;8.53;;;4.70;;
6280;SDS011;3173;48.204;11.612;2023-05-24T07:58:10;10.77;;;5.17;;
6280;SDS011;3173;48.204;11.612;2023-05-24T08:00:36;6.93;;;5.50;;
6280;SDS011;3173;48.204;11.612;2023-05-24T08:03:03;6.07;;;4.60;;
6280;SDS011;3173;48.204;11.612;2023-05-24T08:05:29;8.70;;;5.20;;
6280;SDS011;3173;48.204;11.612;2023-05-24T08:07:56;9.27;;;5.07;;
6280;SDS011;3173;48.204;11.612;2023-05-24T08:10:22;7.40;;;4.90;;
6280;SDS011;3173;48.204;11.612;2023-05-24T08:12:49;6.90;;;5.57;;
6280;SDS011;3173;48.204;11.612;2023-05-24T08:15:18;6.97;;;5.00;;
6280;SDS011;3173;48.204;11.612;2023-05-24T08:17:45;9.03;;;5.83;;
6280;SDS011;3173;48.204;11.612;2023-05-24T08:20:11;9.93;;;5.40;;
6280;SDS011;3173;48.204;11.612;2023-05-24T08:22:41;7.23;;;5.20;;
6280;SDS011;3173;48.204;11.612;2023-05-24T08:25:08;6.90;;;5.10;;
6280;SDS011;3173;48.204;11.612;2023-05-24T08:27:35;6.57;;;5.83;;
6280;SDS011;3173;48.204;11.612;2023-05-24T08:30:02;9.10;;;6.20;;
6280;SDS011;3173;48.204;11.612;2023-05-24T08:32:28;7.50;;;5.50;;
6280;SDS011;3173;48.204;11.612;2023-05-24T08:34:54;7.13;;;5.13;;
6280;SDS011;3173;48.204;11.612;2023-05-24T08:37:21;7.93;;;5.03;;
6280;SDS011;3173;48.204;11.612;2023-05-24T08:39:47;7.67;;;5.20;;
6280;SDS011;3173;48.204;11.612;2023-05-24T08:42:14;8.33;;;5.60;;
6280;SDS011;3173;48.204;11.612;2023-05-24T08:44:46;8.60;;;5.87;;
6280;SDS011;3173;48.204;11.612;2023-05-24T08:47:13;7.80;;;5.60;;
6280;SDS011;3173;48.204;11.612;2023-05-24T08:49:40;5.80;;;4.70;;
6280;SDS011;3173;48.204;11.612;2023-05-24T08:52:07;6.17;;;4.60;;
6280;SDS011;3173;48.204;11.612;2023-05-24T08:54:35;10.17;;;6.17;;
6280;SDS011;3173;48.204;11.612;2023-05-24T08:57:01;8.80;;;6.03;;
6280;SDS011;3173;48.204;11.612;2023-05-24T08:59:28;10.40;;;6.80;;
6280;SDS011;3173;48.204;11.612;2023-05-24T09:01:54;9.40;;;6.70;;
6280;SDS011;3173;48.204;11.612;2023-05-24T09:04:23;8.10;;;6.27;;
6280;SDS011;3173;48.204;11.612;2023-05-24T09:06:50;12.37;;;7.07;;
6280;SDS011;3173;48.204;11.612;2023-05-24T09:09:17;10.70;;;6.60;;
6280;SDS011;3173;48.204;11.612;2023-05-24T09:11:43;10.43;;;7.27;;
6280;SDS011;3173;48.204;11.612;2023-05-24T09:14:12;11.13;;;7.30;;
6280;SDS011;3173;48.204;11.612;2023-05-24T09:16:38;10.97;;;8.57;;
6280;SDS011;3173;48.204;11.612;2023-05-24T09:19:05;9.00;;;6.90;;
6280;SDS011;3173;48.204;11.612;2023-05-24T09:21:31;13.10;;;9.80;;
6280;SDS011;3173;48.204;11.612;2023-05-24T09:23:58;9.33;;;6.40;;
6280;SDS011;3173;48.204;11.612;2023-05-24T09:26:26;11.77;;;7.47;;
6280;SDS011;3173;48.204;11.612;2023-05-24T09:28:54;15.53;;;7.30;;
6280;SDS011;3173;48.204;11.612;2023-05-24T09:31:31;8.67;;;6.73;;
6280;SDS011;3173;48.204;11.612;2023-05-24T09:33:58;13.10;;;6.53;;
6280;SDS011;3173;48.204;11.612;2023-05-24T09:36:25;8.93;;;6.13;;
6280;SDS011;3173;48.204;11.612;2023-05-24T09:39:06;11.23;;;6.77;;
6280;SDS011;3173;48.204;11.612;2023-05-24T09:41:34;9.97;;;6.20;;
6280;SDS011;3173;48.204;11.612;2023-05-24T09:44:00;9.83;;;6.00;;
6280;SDS011;3173;48.204;11.612;2023-05-24T09:46:27;9.77;;;6.50;;
6280;SDS011;3173;48.204;11.612;2023-05-24T09:48:54;8.63;;;6.60;;
6280;SDS011;3173;48.204;11.612;2023-05-24T09:51:21;10.97;;;6.50;;
6280;SDS011;3173;48.204;11.612;2023-05-24T09:53:47;14.90;;;6.83;;
6280;SDS011;3173;48.204;11.612;2023-05-24T09:56:15;8.83;;;7.00;;
6280;SDS011;3173;48.204;11.612;2023-05-24T09:58:41;20.03;;;7.00;;
6280;SDS011;3173;48.204;11.612;2023-05-24T10:01:08;8.03;;;6.20;;
6280;SDS011;3173;48.204;11.612;2023-05-24T10:03:54;18.37;;;6.70;;
6280;SDS011;3173;48.204;11.612;2023-05-24T10:06:21;9.23;;;6.30;;
6280;SDS011;3173;48.204;11.612;2023-05-24T10:08:47;11.93;;;6.00;;
6280;SDS011;3173;48.204;11.612;2023-05-24T10:11:15;9.90;;;5.60;;
6280;SDS011;3173;48.204;11.612;2023-05-24T10:13:41;13.50;;;6.30;;
6280;SDS011;3173;48.204;11.612;2023-05-24T10:16:07;12.57;;;5.80;;
6280;SDS011;3173;48.204;11.612;2023-05-24T10:18:33;11.37;;;6.07;;
6280;SDS011;3173;48.204;11.612;2023-05-24T10:20:59;16.00;;;7.33;;
6280;SDS011;3173;48.204;11.612;2023-05-24T10:23:30;14.30;;;6.47;;
6280;SDS011;3173;48.204;11.612;2023-05-24T10:26:17;10.83;;;6.90;;
6280;SDS011;3173;48.204;11.612;2023-05-24T10:28:50;13.50;;;6.73;;
6280;SDS011;3173;48.204;11.612;2023-05-24T10:31:20;8.70;;;5.93;;
6280;SDS011;3173;48.204;11.612;2023-05-24T10:33:47;13.50;;;6.50;;
6280;SDS011;3173;48.204;11.612;2023-05-24T10:36:16;11.67;;;6.53;;
6280;SDS011;3173;48.204;11.612;2023-05-24T10:38:45;11.67;;;6.70;;
6280;SDS011;3173;48.204;11.612;2023-05-24T10:41:11;14.43;;;6.67;;
6280;SDS011;3173;48.204;11.612;2023-05-24T10:43:38;14.37;;;6.37;;
6280;SDS011;3173;48.204;11.612;2023-05-24T10:46:06;11.47;;;6.53;;
6280;SDS011;3173;48.204;11.612;2023-05-24T10:48:35;11.30;;;5.83;;
6280;SDS011;3173;48.204;11.612;2023-05-24T10:53:47;13.10;;;6.80;;
6280;SDS011;3173;48.204;11.612;2023-05-24T10:56:15;13.40;;;7.20;;
6280;SDS011;3173;48.204;11.612;2023-05-24T11:01:30;9.87;;;7.03;;
6280;SDS011;3173;48.204;11.612;2023-05-24T11:04:09;13.10;;;7.53;;
6280;SDS011;3173;48.204;11.612;2023-05-24T11:06:48;13.00;;;7.00;;
6280;SDS011;3173;48.204;11.612;2023-05-24T11:09:15;14.93;;;7.27;;
6280;SDS011;3173;48.204;11.612;2023-05-24T11:11:45;12.33;;;7.03;;
6280;SDS011;3173;48.204;11.612;2023-05-24T11:14:12;15.37;;;6.93;;
6280;SDS011;3173;48.204;11.612;2023-05-24T11:16:38;9.30;;;6.23;;
6280;SDS011;3173;48.204;11.612;2023-05-24T11:19:11;9.77;;;6.03;;
6280;SDS011;3173;48.204;11.612;2023-05-24T11:21:38;12.47;;;7.33;;
6280;SDS011;3173;48.204;11.612;2023-05-24T11:24:05;11.57;;;6.43;;
6280;SDS011;3173;48.204;11.612;2023-05-24T11:26:32;11.77;;;6.37;;
6280;SDS011;3173;48.204;11.612;2023-05-24T11:28:59;13.63;;;7.63;;
6280;SDS011;3173;48.204;11.612;2023-05-24T11:31:28;11.00;;;6.97;;
6280;SDS011;3173;48.204;11.612;2023-05-24T11:33:55;14.77;;;7.00;;
6280;SDS011;3173;48.204;11.612;2023-05-24T11:36:21;13.07;;;6.47;;
6280;SDS011;3173;48.204;11.612;2023-05-24T11:38:48;15.43;;;7.40;;
6280;SDS011;3173;48.204;11.612;2023-05-24T11:41:16;13.43;;;6.30;;
6280;SDS011;3173;48.204;11.612;2023-05-24T11:43:43;11.57;;;7.07;;
6280;SDS011;3173;48.204;11.612;2023-05-24T11:46:09;12.50;;;7.20;;
6280;SDS011;3173;48.204;11.612;2023-05-24T11:48:35;12.97;;;6.90;;
6280;SDS011;3173;48.204;11.612;2023-05-24T11:51:02;13.00;;;6.00;;
6280;SDS011;3173;48.204;11.612;2023-05-24T11:53:30;14.30;;;6.17;;
6280;SDS011;3173;48.204;11.612;2023-05-24T11:55:56;10.40;;;5.23;;
6280;SDS011;3173;48.204;11.612;2023-05-24T11:58:22;11.47;;;5.93;;
6280;SDS011;3173;48.204;11.612;2023-05-24T12:00:49;9.50;;;5.60;;
6280;SDS011;3173;48.204;11.612;2023-05-24T12:03:16;13.63;;;6.33;;
6280;SDS011;3173;48.204;11.612;2023-05-24T12:05:42;11.03;;;6.30;;
6280;SDS011;3173;48.204;11.612;2023-05-24T12:08:09;10.07;;;5.37;;
6280;SDS011;3173;48.204;11.612;2023-05-24T12:10:37;9.60;;;4.83;;
6280;SDS011;3173;48.204;11.612;2023-05-24T12:13:03;8.60;;;5.43;;
6280;SDS011;3173;48.204;11.612;2023-05-24T12:15:29;8.13;;;5.10;;
6280;SDS011;3173;48.204;11.612;2023-05-24T12:17:56;12.40;;;5.20;;
6280;SDS011;3173;48.204;11.612;2023-05-24T12:20:23;15.47;;;5.90;;
6280;SDS011;3173;48.204;11.612;2023-05-24T12:22:52;11.30;;;5.83;;
6280;SDS011;3173;48.204;11.612;2023-05-24T12:25:19;13.03;;;6.20;;
6280;SDS011;3173;48.204;11.612;2023-05-24T12:27:52;12.27;;;6.70;;
6280;SDS011;3173;48.204;11.612;2023-05-24T12:30:23;16.20;;;7.10;;
6280;SDS011;3173;48.204;11.612;2023-05-24T12:32:49;11.30;;;5.60;;
6280;SDS011;3173;48.204;11.612;2023-05-24T12:35:18;12.77;;;6.03;;
6280;SDS011;3173;48.204;11.612;2023-05-24T12:37:44;9.40;;;5.03;;
6280;SDS011;3173;48.204;11.612;2023-05-24T12:42:41;12.40;;;5.77;;
6280;SDS011;3173;48.204;11.612;2023-05-24T12:45:09;15.20;;;7.53;;
6280;SDS011;3173;48.204;11.612;2023-05-24T12:47:36;15.50;;;6.80;;
6280;SDS011;3173;48.204;11.612;2023-05-24T12:50:02;11.10;;;6.60;;
6280;SDS011;3173;48.204;11.612;2023-05-24T12:52:28;13.20;;;6.53;;
6280;SDS011;3173;48.204;11.612;2023-05-24T12:54:54;16.63;;;5.93;;
6280;SDS011;3173;48.204;11.612;2023-05-24T12:57:20;10.60;;;5.50;;
6280;SDS011;3173;48.204;11.612;2023-05-24T12:59:46;11.67;;;6.20;;
6280;SDS011;3173;48.204;11.612;2023-05-24T13:02:12;16.40;;;6.40;;
6280;SDS011;3173;48.204;11.612;2023-05-24T13:04:38;13.57;;;5.80;;
6280;SDS011;3173;48.204;11.612;2023-05-24T13:07:04;11.10;;;6.10;;
6280;SDS011;3173;48.204;11.612;2023-05-24T13:09:30;17.40;;;7.80;;
6280;SDS011;3173;48.204;11.612;2023-05-24T13:11:58;13.50;;;6.23;;
6280;SDS011;3173;48.204;11.612;2023-05-24T13:14:24;8.87;;;6.10;;
6280;SDS011;3173;48.204;11.612;2023-05-24T13:16:50;9.73;;;5.50;;
6280;SDS011;3173;48.204;11.612;2023-05-24T13:19:16;17.70;;;6.73;;
6280;SDS011;3173;48.204;11.612;2023-05-24T13:21:42;8.37;;;6.17;;
6280;SDS011;3173;48.204;11.612;2023-05-24T13:24:09;16.47;;;5.80;;
6280;SDS011;3173;48.204;11.612;2023-05-24T13:26:35;8.43;;;5.03;;
6280;SDS011;3173;48.204;11.612;2023-05-24T13:29:02;10.73;;;5.90;;
6280;SDS011;3173;48.204;11.612;2023-05-24T13:31:29;16.30;;;5.30;;
6280;SDS011;3173;48.204;11.612;2023-05-24T13:33:55;13.10;;;4.87;;
6280;SDS011;3173;48.204;11.612;2023-05-24T13:36:21;10.80;;;5.23;;
6280;SDS011;3173;48.204;11.612;2023-05-24T13:38:48;11.63;;;5.00;;
6280;SDS011;3173;48.204;11.612;2023-05-24T13:41:14;13.17;;;5.50;;
6280;SDS011;3173;48.204;11.612;2023-05-24T13:43:40;9.83;;;5.53;;
6280;SDS011;3173;48.204;11.612;2023-05-24T13:46:06;15.77;;;6.40;;
6280;SDS011;3173;48.204;11.612;2023-05-24T13:48:33;10.70;;;4.50;;
6280;SDS011;3173;48.204;11.612;2023-05-24T13:50:59;14.60;;;4.67;;
6280;SDS011;3173;48.204;11.612;2023-05-24T13:53:26;11.37;;;4.20;;
6280;SDS011;3173;48.204;11.612;2023-05-24T13:55:52;10.50;;;3.97;;
6280;SDS011;3173;48.204;11.612;2023-05-24T13:58:18;10.00;;;4.70;;
6280;SDS011;3173;48.204;11.612;2023-05-24T14:00:45;15.07;;;4.67;;
6280;SDS011;3173;48.204;11.612;2023-05-24T14:03:11;8.00;;;4.77;;
6280;SDS011;3173;48.204;11.612;2023-05-24T14:05:39;11.77;;;5.00;;
6280;SDS011;3173;48.204;11.612;2023-05-24T14:08:05;11.77;;;4.70;;
6280;SDS011;3173;48.204;11.612;2023-05-24T14:10:32;11.70;;;5.10;;
6280;SDS011;3173;48.204;11.612;2023-05-24T14:13:00;10.30;;;4.60;;
6280;SDS011;3173;48.204;11.612;2023-05-24T14:15:26;11.27;;;4.93;;
6280;SDS011;3173;48.204;11.612;2023-05-24T14:17:54;15.87;;;5.10;;
6280;SDS011;3173;48.204;11.612;2023-05-24T14:20:21;14.33;;;5.47;;
6280;SDS011;3173;48.204;11.612;2023-05-24T14:22:47;18.93;;;5.70;;
6280;SDS011;3173;48.204;11.612;2023-05-24T14:25:13;10.57;;;5.33;;
6280;SDS011;3173;48.204;11.612;2023-05-24T14:27:40;8.00;;;4.60;;
6280;SDS011;3173;48.204;11.612;2023-05-24T14:30:08;8.77;;;4.37;;
6280;SDS011;3173;48.204;11.612;2023-05-24T14:32:34;11.13;;;4.17;;
6280;SDS011;3173;48.204;11.612;2023-05-24T14:35:00;14.03;;;3.80;;
6280;SDS011;3173;48.204;11.612;2023-05-24T14:37:27;15.97;;;4.67;;
6280;SDS011;3173;48.204;11.612;2023-05-24T14:39:53;10.63;;;4.73;;
6280;SDS011;3173;48.204;11.612;2023-05-24T14:42:20;6.97;;;4.20;;
6280;SDS011;3173;48.204;11.612;2023-05-24T14:44:46;10.40;;;5.37;;
6280;SDS011;3173;48.204;11.612;2023-05-24T14:47:12;10.17;;;4.60;;
6280;SDS011;3173;48.204;11.612;2023-05-24T14:49:38;11.77;;;4.53;;
6280;SDS011;3173;48.204;11.612;2023-05-24T14:52:04;11.40;;;5.03;;
6280;SDS011;3173;48.204;11.612;2023-05-24T14:54:30;10.93;;;4.10;;
6280;SDS011;3173;48.204;11.612;2023-05-24T14:56:56;12.70;;;4.40;;
6280;SDS011;3173;48.204;11.612;2023-05-24T14:59:22;7.63;;;3.73;;
6280;SDS011;3173;48.204;11.612;2023-05-24T15:01:49;7.70;;;4.17;;
6280;SDS011;3173;48.204;11.612;2023-05-24T15:04:15;17.17;;;6.00;;
6280;SDS011;3173;48.204;11.612;2023-05-24T15:06:41;9.27;;;3.93;;
6280;SDS011;3173;48.204;11.612;2023-05-24T15:09:07;12.00;;;4.37;;
6280;SDS011;3173;48.204;11.612;2023-05-24T15:11:33;8.20;;;3.77;;
6280;SDS011;3173;48.204;11.612;2023-05-24T15:14:00;11.47;;;4.30;;
6280;SDS011;3173;48.204;11.612;2023-05-24T15:16:26;10.53;;;4.57;;
6280;SDS011;3173;48.204;11.612;2023-05-24T15:18:53;11.90;;;4.50;;
6280;SDS011;3173;48.204;11.612;2023-05-24T15:21:19;14.00;;;4.13;;